createdAt,value
2023-12-22T00:00:22.531Z,9.23
2023-12-22T00:02:49.310Z,6.72
2023-12-22T00:05:16.091Z,8.60
2023-12-22T00:07:43.019Z,5.28
2023-12-22T00:10:10.681Z,10.82
2023-12-22T00:12:39.294Z,9.40
2023-12-22T00:15:07.401Z,11.50
2023-12-22T00:17:34.121Z,9.73
2023-12-22T00:20:04.166Z,8.65
2023-12-22T00:22:31.674Z,10.40
2023-12-22T00:24:58.544Z,13.20
2023-12-22T00:27:25.265Z,13.32
2023-12-22T00:29:52.067Z,7.07
2023-12-22T00:32:18.826Z,7.95
2023-12-22T00:34:45.667Z,12.52
2023-12-22T00:37:13.621Z,10.23
2023-12-22T00:39:40.424Z,10.25
2023-12-22T00:42:07.293Z,7.80
2023-12-22T00:44:35.078Z,8.68
2023-12-22T00:47:01.956Z,6.30
2023-12-22T00:49:28.844Z,9.23
2023-12-22T00:51:55.580Z,5.97
2023-12-22T00:54:22.382Z,7.50
2023-12-22T00:56:49.091Z,6.88
2023-12-22T00:59:15.897Z,9.18
2023-12-22T01:01:42.926Z,10.10
2023-12-22T01:04:09.872Z,9.25
2023-12-22T01:06:40.593Z,4.82
2023-12-22T01:09:07.698Z,5.85
2023-12-22T01:11:34.517Z,5.25
2023-12-22T01:14:01.315Z,7.07
2023-12-22T01:16:28.257Z,7.15
2023-12-22T01:18:55.217Z,5.30
2023-12-22T01:21:22.983Z,3.50
2023-12-22T01:23:49.759Z,3.30
2023-12-22T01:26:16.893Z,3.63
2023-12-22T01:28:43.618Z,4.72
2023-12-22T01:31:10.384Z,3.47
2023-12-22T01:33:37.234Z,4.75
2023-12-22T01:36:04.311Z,7.63
2023-12-22T01:38:31.133Z,3.33
2023-12-22T01:40:58.138Z,3.58
2023-12-22T01:43:25.206Z,6.47
2023-12-22T01:45:53.793Z,5.43
2023-12-22T01:48:20.705Z,5.75
2023-12-22T01:50:49.455Z,4.30
2023-12-22T01:53:16.273Z,2.47
2023-12-22T01:55:43.097Z,4.47
2023-12-22T01:58:09.847Z,1.75
2023-12-22T02:00:36.676Z,2.50
2023-12-22T02:03:03.490Z,3.13
2023-12-22T02:05:30.917Z,0.60
2023-12-22T02:07:57.743Z,1.63
2023-12-22T02:10:24.585Z,2.45
2023-12-22T02:12:51.323Z,2.40
2023-12-22T02:15:18.210Z,1.80
2023-12-22T02:17:47.171Z,1.80
2023-12-22T02:20:14.141Z,1.63
2023-12-22T02:22:40.931Z,1.95
2023-12-22T02:25:08.159Z,1.65
2023-12-22T02:27:50.431Z,2.58
2023-12-22T02:30:22.554Z,5.13
2023-12-22T02:32:50.229Z,2.50
2023-12-22T02:35:20.428Z,1.80
2023-12-22T02:37:48.321Z,1.77
2023-12-22T02:40:15.738Z,2.38
2023-12-22T02:42:42.475Z,2.88
2023-12-22T02:45:15.034Z,3.85
2023-12-22T02:47:42.079Z,2.38
2023-12-22T02:50:09.618Z,2.67
2023-12-22T02:52:36.555Z,2.50
2023-12-22T02:55:04.064Z,3.25
2023-12-22T02:57:30.889Z,3.17
2023-12-22T02:59:57.916Z,2.70
2023-12-22T03:02:24.901Z,1.90
2023-12-22T03:04:51.702Z,1.05
2023-12-22T03:07:18.437Z,2.25
2023-12-22T03:09:45.534Z,1.85
2023-12-22T03:12:12.366Z,1.92
2023-12-22T03:14:39.333Z,1.73
2023-12-22T03:17:07.186Z,1.92
2023-12-22T03:19:34.154Z,2.50
2023-12-22T03:22:01.011Z,3.03
2023-12-22T03:24:30.267Z,1.55
2023-12-22T03:26:57.258Z,2.08
2023-12-22T03:29:24.059Z,2.08
2023-12-22T03:31:50.926Z,4.63
2023-12-22T03:34:17.790Z,4.75
2023-12-22T03:36:45.948Z,4.03
2023-12-22T03:39:12.701Z,1.73
2023-12-22T03:41:39.459Z,1.67
2023-12-22T03:44:06.186Z,0.80
2023-12-22T03:46:33.247Z,1.75
2023-12-22T03:49:00.086Z,2.15
2023-12-22T03:51:27.876Z,1.98
2023-12-22T03:53:54.631Z,2.47
2023-12-22T03:56:21.308Z,1.67
2023-12-22T03:58:48.107Z,1.60
2023-12-22T04:01:18.072Z,1.92
2023-12-22T04:03:44.976Z,3.55
2023-12-22T04:06:11.704Z,2.17
2023-12-22T04:08:38.442Z,1.15
2023-12-22T04:11:05.565Z,1.60
2023-12-22T04:13:32.277Z,1.60
2023-12-22T04:16:00.190Z,0.75
2023-12-22T04:18:27.068Z,0.88
2023-12-22T04:20:56.406Z,2.00
2023-12-22T04:23:23.281Z,1.65
2023-12-22T04:25:50.043Z,1.60
2023-12-22T04:28:16.853Z,1.17
2023-12-22T04:30:43.693Z,1.40
2023-12-22T04:33:10.549Z,1.23
2023-12-22T04:35:37.459Z,1.50
2023-12-22T04:38:04.499Z,1.05
2023-12-22T04:40:32.333Z,0.77
2023-12-22T04:42:59.566Z,2.00
2023-12-22T04:45:26.278Z,1.83
2023-12-22T04:47:53.560Z,2.15
2023-12-22T04:50:20.481Z,0.60
2023-12-22T04:52:47.312Z,1.17
2023-12-22T04:55:14.175Z,0.93
2023-12-22T04:57:41.093Z,0.70
2023-12-22T05:00:08.420Z,1.08
2023-12-22T05:02:35.119Z,0.65
2023-12-22T05:05:04.409Z,2.83
2023-12-22T05:07:32.248Z,2.15
2023-12-22T05:09:58.953Z,0.80
2023-12-22T05:12:25.651Z,2.65
2023-12-22T05:14:52.423Z,0.40
2023-12-22T05:17:20.217Z,0.77
2023-12-22T05:19:47.017Z,0.85
2023-12-22T05:22:13.875Z,2.30
2023-12-22T05:24:40.571Z,1.67
2023-12-22T05:27:07.420Z,1.13
2023-12-22T05:29:35.169Z,1.65
2023-12-22T05:32:02.150Z,1.02
2023-12-22T05:34:29.057Z,1.17
2023-12-22T05:36:55.844Z,1.35
2023-12-22T05:39:22.624Z,0.85
2023-12-22T05:41:49.442Z,0.77
2023-12-22T05:44:16.332Z,1.85
2023-12-22T05:46:43.220Z,0.38
2023-12-22T05:49:10.057Z,0.45
2023-12-22T05:51:45.727Z,0.73
2023-12-22T05:54:13.690Z,1.10
2023-12-22T05:56:40.728Z,1.05
2023-12-22T05:59:07.590Z,0.95
2023-12-22T06:01:34.430Z,1.60
2023-12-22T06:04:02.321Z,0.73
2023-12-22T06:06:29.130Z,0.38
2023-12-22T06:08:55.971Z,0.57
2023-12-22T06:11:23.388Z,0.38
2023-12-22T06:13:51.336Z,0.38
2023-12-22T06:16:19.585Z,0.28
2023-12-22T06:18:46.744Z,0.20
2023-12-22T06:21:13.746Z,0.38
2023-12-22T06:23:40.605Z,1.33
2023-12-22T06:26:13.703Z,0.43
2023-12-22T06:28:41.748Z,0.93
2023-12-22T06:31:10.141Z,1.73
2023-12-22T06:33:37.108Z,1.08
2023-12-22T06:36:04.105Z,0.40
2023-12-22T06:38:32.157Z,0.85
2023-12-22T06:40:58.969Z,0.88
2023-12-22T06:43:26.078Z,0.68
2023-12-22T06:45:56.147Z,1.38
2023-12-22T06:48:23.201Z,0.50
2023-12-22T06:50:50.193Z,0.68
2023-12-22T06:53:25.270Z,1.13
2023-12-22T06:55:53.375Z,0.57
2023-12-22T06:58:22.677Z,1.35
2023-12-22T07:00:49.905Z,1.23
2023-12-22T07:03:19.145Z,0.43
2023-12-22T07:05:46.207Z,0.77
2023-12-22T07:08:14.089Z,0.73
2023-12-22T07:10:41.201Z,1.20
2023-12-22T07:13:08.127Z,0.40
2023-12-22T07:15:35.069Z,1.17
2023-12-22T07:18:02.814Z,1.00
2023-12-22T07:20:30.787Z,1.15
2023-12-22T07:22:58.501Z,0.77
2023-12-22T07:25:25.422Z,2.78
2023-12-22T07:27:53.377Z,1.40
2023-12-22T07:30:21.410Z,1.42
2023-12-22T07:32:53.315Z,1.02
2023-12-22T07:35:20.520Z,1.20
2023-12-22T07:37:47.566Z,2.67
2023-12-22T07:40:15.918Z,1.27
2023-12-22T07:42:45.238Z,0.55
2023-12-22T07:45:12.207Z,1.38
2023-12-22T07:47:39.046Z,0.50
2023-12-22T07:50:09.519Z,0.50
2023-12-22T07:52:41.141Z,0.55
2023-12-22T07:55:11.739Z,0.83
2023-12-22T07:57:39.408Z,0.80
2023-12-22T08:00:07.872Z,1.30
2023-12-22T08:02:34.649Z,0.55
2023-12-22T08:05:01.603Z,0.95
2023-12-22T08:07:28.433Z,1.25
2023-12-22T08:09:55.243Z,0.80
2023-12-22T08:12:22.006Z,0.52
2023-12-22T08:14:48.722Z,0.10
2023-12-22T08:17:16.514Z,0.85
2023-12-22T08:19:46.256Z,0.82
2023-12-22T08:22:15.215Z,0.20
2023-12-22T08:24:43.492Z,1.20
2023-12-22T08:27:10.378Z,1.10
2023-12-22T08:29:37.193Z,0.35
2023-12-22T08:32:04.412Z,0.30
2023-12-22T08:34:31.269Z,0.52
2023-12-22T08:36:58.094Z,1.20
2023-12-22T08:39:27.964Z,1.60
2023-12-22T08:41:54.925Z,0.65
2023-12-22T08:44:21.802Z,1.58
2023-12-22T08:46:48.722Z,1.20
2023-12-22T08:49:15.921Z,0.55
2023-12-22T08:51:44.473Z,1.23
2023-12-22T08:54:11.583Z,0.82
2023-12-22T08:56:40.544Z,0.50
2023-12-22T08:59:10.461Z,1.75
2023-12-22T09:01:43.356Z,1.20
2023-12-22T09:04:12.331Z,1.38
2023-12-22T09:06:40.567Z,0.85
2023-12-22T09:09:08.985Z,0.40
2023-12-22T09:11:36.327Z,1.70
2023-12-22T09:14:07.064Z,3.47
2023-12-22T09:16:35.509Z,1.38
2023-12-22T09:19:02.759Z,1.75
2023-12-22T09:21:30.690Z,1.13
2023-12-22T09:23:58.158Z,1.02
2023-12-22T09:26:27.115Z,0.65
2023-12-22T09:28:56.409Z,1.20
2023-12-22T09:31:23.579Z,1.65
2023-12-22T09:33:53.387Z,3.28
2023-12-22T09:36:20.463Z,0.75
2023-12-22T09:38:47.814Z,1.25
2023-12-22T09:41:14.800Z,1.23
2023-12-22T09:43:42.749Z,0.82
2023-12-22T09:46:09.571Z,1.05
2023-12-22T09:48:37.337Z,3.03
2023-12-22T09:51:05.242Z,0.70
2023-12-22T09:53:33.716Z,0.60
2023-12-22T09:56:01.161Z,0.82
2023-12-22T09:58:28.669Z,0.68
2023-12-22T10:00:56.562Z,0.35
2023-12-22T10:03:23.497Z,0.75
2023-12-22T10:05:50.601Z,0.90
2023-12-22T10:08:17.934Z,2.05
2023-12-22T10:10:44.794Z,1.02
2023-12-22T10:13:11.702Z,2.15
2023-12-22T10:15:41.257Z,1.45
2023-12-22T10:18:08.499Z,1.55
2023-12-22T10:20:36.256Z,1.25
2023-12-22T10:23:03.441Z,0.98
2023-12-22T10:25:36.495Z,0.75
2023-12-22T10:28:03.734Z,1.30
2023-12-22T10:30:30.588Z,2.30
2023-12-22T10:32:57.568Z,1.60
2023-12-22T10:35:24.766Z,1.20
2023-12-22T10:37:55.216Z,2.90
2023-12-22T10:40:22.587Z,1.85
2023-12-22T10:42:49.887Z,1.35
2023-12-22T10:45:18.560Z,1.25
2023-12-22T10:47:46.893Z,2.25
2023-12-22T10:50:15.260Z,1.20
2023-12-22T10:52:42.099Z,1.90
2023-12-22T10:55:09.437Z,2.33
2023-12-22T10:57:39.083Z,2.92
2023-12-22T11:00:08.601Z,2.28
2023-12-22T11:02:36.231Z,1.63
2023-12-22T11:05:07.371Z,1.75
2023-12-22T11:07:36.396Z,1.05
2023-12-22T11:10:05.135Z,1.58
2023-12-22T11:12:34.634Z,1.60
2023-12-22T11:15:04.456Z,2.78
2023-12-22T11:17:32.092Z,2.42
2023-12-22T11:19:58.915Z,2.30
2023-12-22T11:22:25.694Z,1.90
2023-12-22T11:24:52.504Z,1.95
2023-12-22T11:27:20.120Z,3.13
2023-12-22T11:29:50.751Z,3.58
2023-12-22T11:32:18.401Z,4.82
2023-12-22T11:34:46.267Z,3.15
2023-12-22T11:37:14.562Z,3.28
2023-12-22T11:39:45.103Z,2.63
2023-12-22T11:42:18.588Z,2.70
2023-12-22T11:44:46.258Z,2.17
2023-12-22T11:47:14.563Z,2.17
2023-12-22T11:49:41.619Z,2.72
2023-12-22T11:52:15.859Z,2.80
2023-12-22T11:54:50.713Z,3.40
2023-12-22T11:57:29.784Z,4.15
2023-12-22T11:59:56.909Z,1.75
2023-12-22T12:02:23.862Z,1.92
2023-12-22T12:04:52.000Z,3.72
2023-12-22T12:07:41.786Z,3.35
2023-12-22T12:10:09.678Z,3.13
2023-12-22T12:12:37.585Z,3.17
2023-12-22T12:15:36.689Z,1.30
2023-12-22T12:18:04.095Z,2.83
2023-12-22T12:20:31.133Z,2.05
2023-12-22T12:22:57.948Z,2.08
2023-12-22T12:25:32.659Z,2.10
2023-12-22T12:28:07.123Z,1.38
2023-12-22T12:30:34.197Z,1.45
2023-12-22T12:33:08.238Z,1.50
2023-12-22T12:35:35.813Z,2.30
2023-12-22T12:38:04.629Z,2.47
2023-12-22T12:40:33.718Z,1.50
2023-12-22T12:43:01.321Z,1.60
2023-12-22T12:45:28.167Z,2.55
2023-12-22T12:48:02.950Z,2.58
2023-12-22T12:50:32.633Z,2.00
2023-12-22T12:52:59.841Z,1.42
2023-12-22T12:55:26.777Z,2.05
2023-12-22T12:57:53.927Z,2.58
2023-12-22T13:00:27.375Z,2.10
2023-12-22T13:02:57.987Z,1.70
2023-12-22T13:05:25.277Z,1.42
2023-12-22T13:07:52.809Z,2.50
2023-12-22T13:10:26.878Z,1.25
2023-12-22T13:12:56.585Z,2.20
2023-12-22T13:15:23.443Z,1.65
2023-12-22T13:17:50.631Z,1.95
2023-12-22T13:20:17.584Z,3.25
2023-12-22T13:22:44.744Z,1.52
2023-12-22T13:25:12.668Z,2.92
2023-12-22T13:27:49.764Z,3.08
2023-12-22T13:30:45.283Z,2.42
2023-12-22T13:33:12.160Z,2.95
2023-12-22T13:35:42.303Z,2.78
2023-12-22T13:38:10.656Z,2.65
2023-12-22T13:40:39.844Z,3.03
2023-12-22T13:43:08.434Z,3.20
2023-12-22T13:45:35.649Z,1.67
2023-12-22T13:48:02.473Z,2.35
2023-12-22T13:50:29.489Z,2.50
2023-12-22T13:52:56.325Z,3.35
2023-12-22T13:55:25.960Z,0.77
2023-12-22T13:58:02.879Z,1.90
2023-12-22T14:00:31.270Z,2.40
2023-12-22T14:03:01.726Z,1.60
2023-12-22T14:05:32.515Z,3.08
2023-12-22T14:08:02.342Z,1.83
2023-12-22T14:10:29.196Z,2.55
2023-12-22T14:12:55.924Z,3.13
2023-12-22T14:15:27.035Z,1.92
2023-12-22T14:17:58.297Z,3.03
2023-12-22T14:20:26.123Z,2.20
2023-12-22T14:22:53.634Z,4.05
2023-12-22T14:25:20.621Z,2.40
2023-12-22T14:27:47.847Z,4.15
2023-12-22T14:30:15.236Z,1.20
2023-12-22T14:32:42.242Z,2.35
2023-12-22T14:35:09.196Z,2.60
2023-12-22T14:37:37.943Z,2.58
2023-12-22T14:40:06.701Z,2.95
2023-12-22T14:42:33.860Z,4.13
2023-12-22T14:45:05.224Z,1.92
2023-12-22T14:47:32.131Z,3.33
2023-12-22T14:50:05.068Z,2.83
2023-12-22T14:52:35.123Z,2.90
2023-12-22T14:55:02.225Z,1.85
2023-12-22T14:57:31.673Z,2.95
2023-12-22T14:59:58.516Z,2.80
2023-12-22T15:02:25.559Z,1.52
2023-12-22T15:04:52.376Z,2.10
2023-12-22T15:07:20.623Z,2.90
2023-12-22T15:09:49.511Z,2.30
2023-12-22T15:12:16.945Z,2.97
2023-12-22T15:14:47.463Z,2.08
2023-12-22T15:17:14.703Z,1.65
2023-12-22T15:19:43.754Z,2.53
2023-12-22T15:22:14.364Z,3.00
2023-12-22T15:24:44.317Z,1.95
2023-12-22T15:27:11.710Z,1.98
2023-12-22T15:29:38.431Z,2.15
2023-12-22T15:32:05.724Z,2.03
2023-12-22T15:34:32.655Z,3.63
2023-12-22T15:36:59.488Z,3.30
2023-12-22T15:39:26.304Z,3.78
2023-12-22T15:41:53.018Z,1.63
2023-12-22T15:44:20.063Z,1.40
2023-12-22T15:46:46.869Z,1.65
2023-12-22T15:49:13.736Z,2.25
2023-12-22T15:51:40.578Z,3.80
2023-12-22T15:54:08.686Z,2.40
2023-12-22T15:56:35.508Z,2.15
2023-12-22T15:59:02.314Z,2.17
2023-12-22T16:01:29.154Z,3.08
2023-12-22T16:03:55.956Z,6.13
2023-12-22T16:06:23.825Z,1.88
2023-12-22T16:08:50.578Z,2.40
2023-12-22T16:11:20.129Z,2.55
2023-12-22T16:13:46.989Z,2.00
2023-12-22T16:16:19.137Z,3.25
2023-12-22T16:18:46.226Z,2.17
2023-12-22T16:21:13.066Z,2.47
2023-12-22T16:23:39.802Z,1.52
2023-12-22T16:26:08.569Z,1.80
2023-12-22T16:28:35.559Z,2.10
2023-12-22T16:31:02.642Z,1.38
2023-12-22T16:33:29.660Z,2.67
2023-12-22T16:35:56.439Z,1.63
2023-12-22T16:38:23.824Z,1.98
2023-12-22T16:40:50.560Z,4.18
2023-12-22T16:43:17.386Z,2.83
2023-12-22T16:45:44.734Z,2.00
2023-12-22T16:48:11.573Z,2.15
2023-12-22T16:50:38.389Z,2.20
2023-12-22T16:53:06.622Z,1.88
2023-12-22T16:55:35.523Z,2.22
2023-12-22T16:58:05.472Z,4.78
2023-12-22T17:00:32.314Z,2.35
2023-12-22T17:03:01.284Z,2.05
2023-12-22T17:05:28.501Z,3.33
2023-12-22T17:07:56.817Z,1.58
2023-12-22T17:10:23.705Z,1.55
2023-12-22T17:12:56.946Z,2.05
2023-12-22T17:17:50.528Z,4.30
2023-12-22T17:20:18.586Z,2.30
2023-12-22T17:22:45.511Z,1.27
2023-12-22T17:25:12.313Z,3.17
2023-12-22T17:27:39.094Z,3.53
2023-12-22T17:30:06.467Z,2.60
2023-12-22T17:32:33.381Z,2.88
2023-12-22T17:35:00.272Z,3.30
2023-12-22T17:37:27.213Z,1.58
2023-12-22T17:39:54.327Z,3.15
2023-12-22T17:42:21.033Z,2.33
2023-12-22T17:44:47.969Z,2.55
2023-12-22T17:47:14.945Z,1.70
2023-12-22T17:49:41.851Z,2.42
2023-12-22T17:52:08.770Z,1.70
2023-12-22T17:54:35.960Z,2.85
2023-12-22T17:57:04.314Z,1.92
2023-12-22T17:59:32.238Z,3.55
2023-12-22T18:01:59.201Z,2.25
2023-12-22T18:04:26.093Z,2.08
2023-12-22T18:06:52.829Z,1.60
2023-12-22T18:09:19.660Z,2.72
2023-12-22T18:11:47.626Z,2.10
2023-12-22T18:14:14.501Z,1.42
2023-12-22T18:16:44.799Z,2.58
2023-12-22T18:19:11.988Z,2.60
2023-12-22T18:21:38.826Z,2.20
2023-12-22T18:24:06.441Z,2.30
2023-12-22T18:26:33.278Z,1.80
2023-12-22T18:29:00.220Z,2.03
2023-12-22T18:31:27.323Z,1.67
2023-12-22T18:33:54.222Z,1.55
2023-12-22T18:36:21.296Z,1.30
2023-12-22T18:38:48.121Z,2.05
2023-12-22T18:41:15.385Z,2.75
2023-12-22T18:43:42.231Z,2.05
2023-12-22T18:46:08.999Z,1.77
2023-12-22T18:48:36.486Z,1.88
2023-12-22T18:51:03.729Z,3.15
2023-12-22T18:53:30.502Z,1.85
2023-12-22T18:55:58.285Z,1.27
2023-12-22T18:58:25.491Z,1.38
2023-12-22T19:00:52.274Z,2.88
2023-12-22T19:03:19.336Z,2.15
2023-12-22T19:05:46.248Z,1.63
2023-12-22T19:08:13.147Z,1.98
2023-12-22T19:10:39.992Z,3.33
2023-12-22T19:13:06.891Z,1.05
2023-12-22T19:15:34.459Z,2.35
2023-12-22T19:18:01.429Z,1.45
2023-12-22T19:20:28.324Z,2.17
2023-12-22T19:22:56.144Z,2.30
2023-12-22T19:25:23.144Z,2.33
2023-12-22T19:27:50.845Z,1.73
2023-12-22T19:30:18.357Z,2.90
2023-12-22T19:32:46.617Z,1.23
2023-12-22T19:35:14.159Z,1.48
2023-12-22T19:37:41.318Z,2.08
2023-12-22T19:40:08.735Z,1.45
2023-12-22T19:42:35.550Z,1.02
2023-12-22T19:45:03.023Z,0.65
2023-12-22T19:47:30.002Z,1.75
2023-12-22T19:49:57.711Z,1.75
2023-12-22T19:52:25.482Z,1.85
2023-12-22T19:54:52.305Z,1.50
2023-12-22T19:57:19.074Z,3.72
2023-12-22T19:59:45.913Z,3.38
2023-12-22T20:02:12.912Z,1.38
2023-12-22T20:04:39.798Z,2.55
2023-12-22T20:07:06.615Z,1.50
2023-12-22T20:09:34.292Z,2.13
2023-12-22T20:12:01.865Z,1.63
2023-12-22T20:14:28.736Z,1.55
2023-12-22T20:16:55.641Z,1.13
2023-12-22T20:19:22.868Z,0.70
2023-12-22T20:21:49.899Z,2.03
2023-12-22T20:24:16.909Z,0.88
2023-12-22T20:26:44.077Z,1.58
2023-12-22T20:29:10.992Z,1.48
2023-12-22T20:31:38.965Z,1.10
2023-12-22T20:34:06.040Z,1.63
2023-12-22T20:36:33.012Z,1.83
2023-12-22T20:38:59.899Z,2.58
2023-12-22T20:41:26.585Z,1.27
2023-12-22T20:43:53.468Z,0.77
2023-12-22T20:46:20.426Z,2.45
2023-12-22T20:48:47.698Z,1.88
2023-12-22T20:51:14.736Z,2.03
2023-12-22T20:53:41.581Z,2.33
2023-12-22T20:56:21.337Z,1.27
2023-12-22T20:58:49.287Z,1.67
2023-12-22T21:01:16.733Z,1.52
2023-12-22T21:03:43.807Z,2.00
2023-12-22T21:06:10.926Z,1.73
2023-12-22T21:08:38.562Z,1.70
2023-12-22T21:11:06.056Z,2.65
2023-12-22T21:13:33.073Z,1.88
2023-12-22T21:15:59.905Z,1.70
2023-12-22T21:18:26.874Z,1.20
2023-12-22T21:20:53.866Z,1.05
2023-12-22T21:23:20.979Z,1.73
2023-12-22T21:25:48.168Z,2.60
2023-12-22T21:28:15.616Z,1.88
2023-12-22T21:30:43.203Z,1.13
2023-12-22T21:33:11.447Z,1.13
2023-12-22T21:35:38.745Z,1.63
2023-12-22T21:38:06.219Z,1.20
2023-12-22T21:40:35.477Z,1.00
2023-12-22T21:43:02.308Z,1.30
2023-12-22T21:45:31.163Z,0.95
2023-12-22T21:47:58.273Z,2.15
2023-12-22T21:50:25.330Z,1.92
2023-12-22T21:52:53.178Z,1.40
2023-12-22T21:55:20.163Z,1.80
2023-12-22T21:57:47.566Z,1.73
2023-12-22T22:00:24.303Z,0.70
2023-12-22T22:02:51.581Z,1.50
2023-12-22T22:05:18.570Z,1.77
2023-12-22T22:07:45.665Z,2.20
2023-12-22T22:10:12.510Z,0.98
2023-12-22T22:12:40.740Z,1.55
2023-12-22T22:15:10.150Z,1.48
2023-12-22T22:17:37.043Z,1.90
2023-12-22T22:20:05.397Z,1.75
2023-12-22T22:22:32.209Z,1.10
2023-12-22T22:24:59.012Z,1.75
2023-12-22T22:27:25.943Z,2.13
2023-12-22T22:29:53.105Z,1.92
2023-12-22T22:32:21.034Z,1.75
2023-12-22T22:34:47.938Z,1.83
2023-12-22T22:37:14.764Z,1.23
2023-12-22T22:39:41.526Z,2.22
2023-12-22T22:42:08.452Z,1.63
2023-12-22T22:44:38.866Z,1.80
2023-12-22T22:47:05.792Z,1.75
2023-12-22T22:49:33.026Z,1.58
2023-12-22T22:51:59.894Z,3.60
2023-12-22T22:54:26.710Z,3.13
2023-12-22T22:56:53.660Z,1.77
2023-12-22T22:59:21.204Z,2.55
2023-12-22T23:01:48.828Z,3.05
2023-12-22T23:04:16.730Z,1.95
2023-12-22T23:06:46.030Z,3.08
2023-12-22T23:09:13.658Z,1.33
2023-12-22T23:11:40.677Z,1.98
2023-12-22T23:14:07.724Z,0.88
2023-12-22T23:16:35.603Z,1.13
2023-12-22T23:19:02.460Z,2.33
2023-12-22T23:21:29.348Z,1.05
2023-12-22T23:23:57.194Z,2.53
2023-12-22T23:26:24.004Z,2.42
2023-12-22T23:28:51.413Z,1.33
2023-12-22T23:31:18.245Z,1.23
2023-12-22T23:33:45.062Z,1.70
2023-12-22T23:36:18.688Z,2.90
2023-12-22T23:38:51.908Z,1.23
2023-12-22T23:41:18.697Z,1.55
2023-12-22T23:43:45.457Z,3.00
2023-12-22T23:46:12.266Z,1.17
2023-12-22T23:48:42.614Z,1.60
2023-12-22T23:51:14.613Z,1.43
2023-12-22T23:53:41.571Z,2.15
2023-12-22T23:56:08.428Z,2.22
2023-12-22T23:58:35.234Z,1.92
